Time;durP1;ratioP1;P1;durP2;ratioP2;P2;SDS_P1;SDS_P2;PMS_P1;PMS_P2;Temp;Humidity;BMP_temperature;BMP_pressure;BME280_temperature;BME280_humidity;BME280_pressure;Samples;Min_cycle;Max_cycle;Signal;HPM_P1;HPM_P2
2022/09/24 00:01:24;;;;;;;3.85;1.45;;;18.70;99.90;;;;;;5091475;28;20413;-71
2022/09/24 00:04:01;;;;;;;2.55;1.30;;;18.80;99.90;;;;;;5091314;28;20028;-71
2022/09/24 00:06:29;;;;;;;3.30;1.38;;;18.90;99.90;;;;;;5091267;28;20024;-71
2022/09/24 00:08:56;;;;;;;5.63;1.90;;;18.90;99.90;;;;;;5091107;28;20044;-72
2022/09/24 00:11:24;;;;;;;4.47;1.70;;;18.90;99.90;;;;;;5090782;28;20070;-71
2022/09/24 00:13:51;;;;;;;3.85;1.65;;;18.80;99.90;;;;;;5091120;28;20016;-71
2022/09/24 00:16:19;;;;;;;4.45;1.80;;;18.70;99.90;;;;;;5090724;28;20403;-71
2022/09/24 00:18:46;;;;;;;6.03;1.70;;;18.60;99.90;;;;;;5091002;28;20522;-71
2022/09/24 00:21:22;;;;;;;4.28;1.98;;;18.60;99.90;;;;;;5091042;28;20020;-71
2022/09/24 00:23:50;;;;;;;4.25;1.50;;;18.60;99.90;;;;;;5091104;28;20016;-71
2022/09/24 00:29:03;;;;;;;2.67;1.33;;;18.50;99.90;;;;;;5091081;28;20054;-71
2022/09/24 00:31:29;;;;;;;4.55;1.80;;;18.60;99.90;;;;;;5090657;28;20056;-71
2022/09/24 00:33:56;;;;;;;4.45;1.40;;;18.50;99.90;;;;;;5089219;28;20194;-71
2022/09/24 00:36:22;;;;;;;4.03;1.63;;;18.50;99.90;;;;;;5090680;28;20120;-71
2022/09/24 00:38:51;;;;;;;5.32;1.75;;;18.50;99.90;;;;;;5090496;28;20020;-71
2022/09/24 00:41:19;;;;;;;5.47;1.70;;;18.50;99.90;;;;;;5090741;28;20089;-71
2022/09/24 00:43:47;;;;;;;2.40;1.30;;;18.50;99.90;;;;;;5090526;28;20020;-71
2022/09/24 00:46:39;;;;;;;3.90;1.75;;;18.50;99.90;;;;;;5090934;28;20024;-72
2022/09/24 00:49:19;;;;;;;3.88;1.50;;;18.60;99.90;;;;;;5090547;28;20031;-71
2022/09/24 00:51:49;;;;;;;5.15;1.60;;;18.60;99.90;;;;;;5092395;28;20060;-71
2022/09/24 00:54:27;;;;;;;7.43;1.70;;;18.60;99.90;;;;;;5094741;28;20024;-71
2022/09/24 00:56:54;;;;;;;7.85;1.80;;;18.60;99.90;;;;;;5094726;28;20035;-72
2022/09/24 00:59:23;;;;;;;3.88;1.52;;;18.60;99.90;;;;;;5094467;28;20046;-72
2022/09/24 01:01:50;;;;;;;8.73;1.50;;;18.60;99.90;;;;;;5094434;28;20423;-71
2022/09/24 01:04:21;;;;;;;4.53;1.45;;;18.60;99.90;;;;;;5094656;28;20169;-71
2022/09/24 01:06:48;;;;;;;2.83;1.52;;;18.60;99.90;;;;;;5094785;28;20437;-72
2022/09/24 01:09:16;;;;;;;4.30;2.17;;;18.70;99.90;;;;;;5094274;28;20556;-72
2022/09/24 01:12:05;;;;;;;4.18;1.67;;;18.60;99.90;;;;;;5094088;28;20549;-71
2022/09/24 01:14:49;;;;;;;6.93;1.60;;;18.60;99.90;;;;;;5094660;28;20086;-71
2022/09/24 01:17:40;;;;;;;3.92;1.50;;;18.70;99.90;;;;;;5094365;28;20020;-71
2022/09/24 01:20:28;;;;;;;3.25;1.48;;;18.70;99.90;;;;;;5094041;28;20028;-71
2022/09/24 01:23:31;;;;;;;8.80;1.60;;;18.80;99.90;;;;;;5094372;28;20031;-72
2022/09/24 01:26:18;;;;;;;4.70;1.80;;;18.80;99.90;;;;;;5093988;28;20035;-71
2022/09/24 01:29:05;;;;;;;3.92;1.45;;;18.80;99.90;;;;;;5092471;28;20417;-72
2022/09/24 01:31:43;;;;;;;6.15;1.60;;;18.90;99.90;;;;;;5094121;28;20093;-72
2022/09/24 01:34:12;;;;;;;4.65;1.48;;;18.80;99.90;;;;;;5094319;28;20020;-71
2022/09/24 01:36:40;;;;;;;3.22;1.50;;;18.90;99.90;;;;;;5093923;28;20035;-71
2022/09/24 01:39:08;;;;;;;4.35;1.40;;;18.90;99.90;;;;;;5094115;28;20020;-71
2022/09/24 01:41:35;;;;;;;4.93;1.67;;;18.90;99.90;;;;;;5094023;28;20180;-71
2022/09/24 01:44:05;;;;;;;2.88;1.50;;;18.90;99.90;;;;;;5093959;28;20027;-71
2022/09/24 01:46:32;;;;;;;4.55;1.55;;;18.80;99.90;;;;;;5094084;28;20023;-71
2022/09/24 01:48:58;;;;;;;5.90;1.27;;;18.80;99.90;;;;;;5093682;28;20024;-71
2022/09/24 01:51:29;;;;;;;5.78;1.58;;;18.80;99.90;;;;;;5093554;28;20036;-71
2022/09/24 01:54:10;;;;;;;5.18;1.65;;;18.80;99.90;;;;;;5093613;28;20024;-71
2022/09/24 01:56:42;;;;;;;7.10;1.55;;;18.80;99.90;;;;;;5093773;28;20149;-71
2022/09/24 01:59:27;;;;;;;3.58;1.50;;;18.70;99.90;;;;;;5093462;28;20024;-71
2022/09/24 02:02:08;;;;;;;4.63;1.60;;;18.60;99.90;;;;;;5091566;28;20487;-71
2022/09/24 02:04:40;;;;;;;3.00;1.35;;;18.50;99.90;;;;;;5093761;28;20020;-71
2022/09/24 02:07:13;;;;;;;4.82;1.60;;;18.50;99.90;;;;;;5091802;28;20047;-72
2022/09/24 02:09:42;;;;;;;3.78;1.60;;;18.50;99.90;;;;;;5093868;28;20424;-71
2022/09/24 02:12:18;;;;;;;4.45;1.50;;;18.40;99.90;;;;;;5093175;28;20059;-72
2022/09/24 02:15:10;;;;;;;3.08;1.13;;;18.40;99.90;;;;;;5093041;28;20028;-72
2022/09/24 02:17:38;;;;;;;3.67;1.52;;;18.40;99.90;;;;;;5093050;28;20076;-71
2022/09/24 02:20:12;;;;;;;4.18;1.50;;;18.40;99.90;;;;;;5093389;28;20080;-71
2022/09/24 02:22:40;;;;;;;7.43;1.50;;;18.30;99.90;;;;;;5093195;28;20456;-72
2022/09/24 02:25:12;;;;;;;2.90;1.40;;;18.30;99.90;;;;;;5093580;28;20034;-71
2022/09/24 02:27:39;;;;;;;4.90;1.63;;;18.30;99.90;;;;;;5093209;28;20456;-71
2022/09/24 02:30:06;;;;;;;4.15;1.50;;;18.30;99.90;;;;;;5092723;28;20082;-71
2022/09/24 02:32:35;;;;;;;4.63;1.70;;;18.30;99.90;;;;;;5092844;28;20020;-71
2022/09/24 02:35:05;;;;;;;6.07;1.40;;;18.30;99.90;;;;;;5093014;28;20107;-71
2022/09/24 02:37:35;;;;;;;3.78;1.35;;;18.20;99.90;;;;;;5092931;28;20099;-71
2022/09/24 02:40:04;;;;;;;5.15;1.45;;;18.30;99.90;;;;;;5092914;28;20027;-71
2022/09/24 02:42:30;;;;;;;5.40;1.60;;;18.20;99.90;;;;;;5092372;28;20028;-72
2022/09/24 02:44:59;;;;;;;2.72;1.23;;;18.20;99.90;;;;;;5093124;28;20055;-71
2022/09/24 02:47:26;;;;;;;5.07;1.40;;;18.20;99.90;;;;;;5093305;28;20543;-70
2022/09/24 02:49:52;;;;;;;6.28;1.45;;;18.10;99.90;;;;;;5092618;28;20028;-71
2022/09/24 02:52:19;;;;;;;7.00;1.55;;;18.10;99.90;;;;;;5090899;28;20039;-72
2022/09/24 02:54:45;;;;;;;4.10;1.50;;;18.10;99.90;;;;;;5092418;28;20210;-70
2022/09/24 02:57:11;;;;;;;4.77;1.40;;;18.10;99.90;;;;;;5092564;28;20108;-71
2022/09/24 02:59:37;;;;;;;5.10;1.50;;;18.00;99.90;;;;;;5092325;28;20385;-72
2022/09/24 03:02:04;;;;;;;5.30;1.50;;;18.10;99.90;;;;;;5092380;28;20469;-70
2022/09/24 03:04:30;;;;;;;4.13;1.33;;;18.10;99.90;;;;;;5091891;28;20040;-70
2022/09/24 03:06:56;;;;;;;2.65;1.38;;;18.10;99.90;;;;;;5092360;28;20035;-71
2022/09/24 03:09:23;;;;;;;4.47;1.60;;;18.10;99.90;;;;;;5093303;28;20027;-72
2022/09/24 03:11:49;;;;;;;2.80;1.48;;;18.10;99.90;;;;;;5093167;28;20024;-71
2022/09/24 03:14:15;;;;;;;3.35;1.40;;;18.10;99.90;;;;;;5090527;28;20384;-71
2022/09/24 03:16:41;;;;;;;3.70;1.50;;;18.20;99.90;;;;;;5092720;28;20077;-70
2022/09/24 03:19:07;;;;;;;3.72;1.48;;;18.20;99.90;;;;;;5092538;28;20020;-70
2022/09/24 03:21:33;;;;;;;4.50;1.40;;;18.20;99.90;;;;;;5093242;28;20039;-71
2022/09/24 03:23:59;;;;;;;4.93;1.35;;;18.30;99.90;;;;;;5093204;28;20020;-71
2022/09/24 03:26:25;;;;;;;2.90;1.20;;;18.30;99.90;;;;;;5093313;28;20028;-71
2022/09/24 03:28:52;;;;;;;4.68;1.60;;;18.30;99.90;;;;;;5093922;28;20042;-72
2022/09/24 03:31:18;;;;;;;4.00;1.40;;;18.20;99.90;;;;;;5093211;28;20056;-71
2022/09/24 03:33:46;;;;;;;2.78;1.45;;;18.30;99.90;;;;;;5093259;28;20020;-71
2022/09/24 03:36:20;;;;;;;5.40;1.40;;;18.30;99.90;;;;;;5093542;28;20368;-71
2022/09/24 03:38:48;;;;;;;3.72;1.40;;;18.40;99.90;;;;;;5093102;28;20025;-71
2022/09/24 03:41:15;;;;;;;3.17;1.10;;;18.40;99.90;;;;;;5093540;28;20142;-71
2022/09/24 03:43:41;;;;;;;2.90;1.30;;;18.40;99.90;;;;;;5091663;28;20472;-71
2022/09/24 03:46:09;;;;;;;3.45;1.27;;;18.40;99.90;;;;;;5092908;28;20116;-71
2022/09/24 03:48:37;;;;;;;3.30;1.40;;;18.40;99.90;;;;;;5092621;28;20425;-71
2022/09/24 03:51:11;;;;;;;2.60;1.40;;;18.40;99.90;;;;;;5092580;28;20036;-71
2022/09/24 03:53:37;;;;;;;4.18;1.20;;;18.30;99.90;;;;;;5093039;28;20092;-71
2022/09/24 03:56:05;;;;;;;4.15;1.35;;;18.40;99.90;;;;;;5093031;28;20039;-70
2022/09/24 03:58:34;;;;;;;3.28;1.35;;;18.40;99.90;;;;;;5092607;28;20380;-71
2022/09/24 04:01:01;;;;;;;3.60;1.30;;;18.50;99.90;;;;;;5092504;28;20036;-70
2022/09/24 04:03:27;;;;;;;3.33;1.30;;;18.40;99.90;;;;;;5092549;28;20028;-71
2022/09/24 04:05:53;;;;;;;4.32;1.40;;;18.40;99.90;;;;;;5092334;28;20024;-71
2022/09/24 04:08:20;;;;;;;7.07;1.35;;;18.30;99.90;;;;;;5092657;28;20025;-70
2022/09/24 04:10:50;;;;;;;5.18;1.73;;;18.30;99.90;;;;;;5092304;28;20036;-70
2022/09/24 04:13:17;;;;;;;3.55;1.30;;;18.30;99.90;;;;;;5092676;28;20116;-69
2022/09/24 04:15:43;;;;;;;5.03;1.30;;;18.30;99.90;;;;;;5092647;28;20085;-70
2022/09/24 04:18:10;;;;;;;3.67;1.30;;;18.30;99.90;;;;;;5092764;28;20089;-70
2022/09/24 04:20:36;;;;;;;7.00;1.42;;;18.30;99.90;;;;;;5093106;28;20016;-70
2022/09/24 04:23:03;;;;;;;5.40;1.48;;;18.30;99.90;;;;;;5092717;28;20024;-71
2022/09/24 04:25:30;;;;;;;4.07;1.40;;;18.30;99.90;;;;;;5092669;28;20024;-70
2022/09/24 04:27:58;;;;;;;3.92;1.33;;;18.30;99.90;;;;;;5092580;28;20110;-70
2022/09/24 04:30:26;;;;;;;3.50;1.42;;;18.30;99.90;;;;;;5092392;28;20052;-71
2022/09/24 04:32:52;;;;;;;3.38;1.30;;;18.30;99.90;;;;;;5092852;28;20016;-70
2022/09/24 04:35:22;;;;;;;4.03;1.40;;;18.30;99.90;;;;;;5092883;28;20035;-71
2022/09/24 04:37:49;;;;;;;2.80;1.23;;;18.30;99.90;;;;;;5093104;28;20027;-71
2022/09/24 04:40:15;;;;;;;4.22;1.73;;;18.40;99.90;;;;;;5092825;28;20027;-72
2022/09/24 04:42:45;;;;;;;3.70;1.23;;;18.40;99.90;;;;;;5092896;28;20031;-71
2022/09/24 04:45:12;;;;;;;3.53;1.50;;;18.40;99.90;;;;;;5092711;28;20036;-71
2022/09/24 04:47:39;;;;;;;2.75;1.40;;;18.40;99.90;;;;;;5092462;28;20016;-70
2022/09/24 04:50:08;;;;;;;5.10;1.40;;;18.40;99.90;;;;;;5092256;28;20024;-71
2022/09/24 04:52:34;;;;;;;4.75;1.50;;;18.40;99.90;;;;;;5092835;28;20028;-71
2022/09/24 04:55:01;;;;;;;3.07;1.30;;;18.60;99.90;;;;;;5092511;28;20103;-71
2022/09/24 04:57:28;;;;;;;3.60;1.65;;;18.60;99.90;;;;;;5092521;28;20266;-71
2022/09/24 04:59:54;;;;;;;4.47;1.55;;;18.60;99.90;;;;;;5092427;28;20055;-72
2022/09/24 05:02:22;;;;;;;5.07;1.65;;;18.60;99.90;;;;;;5091062;28;20032;-72
2022/09/24 05:04:48;;;;;;;4.85;1.30;;;18.60;99.90;;;;;;5092523;28;20024;-71
2022/09/24 05:07:14;;;;;;;4.60;1.50;;;18.60;99.90;;;;;;5092629;28;20032;-71
2022/09/24 05:09:40;;;;;;;5.07;1.40;;;18.60;99.90;;;;;;5092273;28;20042;-71
2022/09/24 05:12:07;;;;;;;3.77;1.50;;;18.50;99.90;;;;;;5092341;28;20262;-71
2022/09/24 05:14:33;;;;;;;2.72;1.40;;;18.60;99.90;;;;;;5092232;28;20024;-71
2022/09/24 05:16:59;;;;;;;3.55;1.58;;;18.60;99.90;;;;;;5092249;28;20032;-72
2022/09/24 05:19:25;;;;;;;4.40;1.70;;;18.70;99.90;;;;;;5092062;28;20024;-70
2022/09/24 05:21:52;;;;;;;3.17;1.53;;;18.60;99.90;;;;;;5092221;28;20020;-73
2022/09/24 05:24:17;;;;;;;3.47;1.60;;;18.70;99.90;;;;;;5092619;28;20270;-72
2022/09/24 05:29:28;;;;;;;4.57;1.50;;;18.70;99.90;;;;;;5091558;28;20039;-71
2022/09/24 05:31:54;;;;;;;4.43;1.30;;;18.70;99.90;;;;;;5091644;28;20028;-71
2022/09/24 05:34:20;;;;;;;6.30;1.53;;;18.80;99.90;;;;;;5089749;28;20345;-71
2022/09/24 05:36:46;;;;;;;8.30;1.65;;;18.80;99.90;;;;;;5091249;28;20319;-70
2022/09/24 05:39:13;;;;;;;3.60;1.30;;;18.70;99.90;;;;;;5095276;28;20020;-70
2022/09/24 05:41:39;;;;;;;4.25;1.67;;;18.80;99.90;;;;;;5094999;28;20042;-70
2022/09/24 05:44:06;;;;;;;5.65;1.60;;;18.80;99.90;;;;;;5095401;28;20037;-71
2022/09/24 05:46:32;;;;;;;9.27;2.03;;;18.80;99.90;;;;;;5094636;28;20104;-71
2022/09/24 05:48:58;;;;;;;4.38;1.38;;;19.00;99.90;;;;;;5094375;28;20031;-71
2022/09/24 05:51:25;;;;;;;4.72;1.60;;;19.20;99.90;;;;;;5094020;28;20028;-72
2022/09/24 05:53:51;;;;;;;3.45;1.48;;;19.40;99.90;;;;;;5093944;28;20088;-71
2022/09/24 05:56:17;;;;;;;3.10;1.58;;;19.40;99.90;;;;;;5094164;28;20036;-71
2022/09/24 05:58:43;;;;;;;4.97;1.50;;;19.40;99.90;;;;;;5092124;28;20025;-71
2022/09/24 06:01:09;;;;;;;5.63;1.65;;;19.60;99.90;;;;;;5093169;28;20039;-71
2022/09/24 06:03:35;;;;;;;6.07;1.60;;;19.80;99.90;;;;;;5093896;28;20039;-71
2022/09/24 06:06:01;;;;;;;5.87;1.47;;;19.90;99.90;;;;;;5093921;28;20028;-71
2022/09/24 06:08:29;;;;;;;5.27;1.53;;;20.50;99.90;;;;;;5094485;28;20327;-72
2022/09/24 06:10:59;;;;;;;3.72;1.30;;;21.40;99.90;;;;;;5093954;28;20293;-72
2022/09/24 06:13:26;;;;;;;4.40;1.30;;;22.20;99.90;;;;;;5094055;28;20013;-73
2022/09/24 06:15:52;;;;;;;6.38;1.45;;;22.50;99.90;;;;;;5094074;28;20055;-72
2022/09/24 06:18:18;;;;;;;7.22;1.60;;;22.80;99.90;;;;;;5094408;28;20028;-73
2022/09/24 06:20:45;;;;;;;5.18;1.13;;;23.20;99.90;;;;;;5094745;28;20032;-73
2022/09/24 06:23:11;;;;;;;4.78;1.30;;;23.80;99.90;;;;;;5094399;28;20119;-74
2022/09/24 06:25:37;;;;;;;6.32;1.65;;;24.40;99.90;;;;;;5094274;28;20070;-71
2022/09/24 06:28:04;;;;;;;4.30;1.40;;;24.30;99.90;;;;;;5094346;28;20016;-71
2022/09/24 06:30:40;;;;;;;5.05;1.30;;;24.50;99.90;;;;;;5093623;28;20075;-72
2022/09/24 06:33:10;;;;;;;3.20;1.25;;;24.50;99.90;;;;;;5094206;28;20031;-74
2022/09/24 06:35:38;;;;;;;3.92;1.35;;;24.80;99.90;;;;;;5094100;28;20035;-72
2022/09/24 06:38:05;;;;;;;4.78;1.20;;;24.80;99.90;;;;;;5094074;28;20028;-72
2022/09/24 06:40:32;;;;;;;3.58;1.50;;;24.80;99.90;;;;;;5094144;28;20028;-72
2022/09/24 06:42:58;;;;;;;3.35;1.33;;;25.00;99.90;;;;;;5092653;28;20020;-71
2022/09/24 06:45:25;;;;;;;4.22;1.30;;;25.80;99.90;;;;;;5094045;28;20031;-72
2022/09/24 06:47:52;;;;;;;3.63;1.70;;;26.20;99.90;;;;;;5093938;28;20076;-73
2022/09/24 06:50:18;;;;;;;6.35;1.73;;;26.10;99.90;;;;;;5093903;28;20036;-73
2022/09/24 06:52:44;;;;;;;5.55;1.65;;;26.60;99.40;;;;;;5094103;28;20027;-74
2022/09/24 06:55:11;;;;;;;3.70;1.73;;;27.60;98.70;;;;;;5093696;28;20028;-74
2022/09/24 06:57:37;;;;;;;4.20;1.60;;;27.10;98.70;;;;;;5094245;28;20467;-74
2022/09/24 07:00:03;;;;;;;5.43;1.50;;;26.90;98.90;;;;;;5092360;28;20105;-73
2022/09/24 07:02:30;;;;;;;3.47;1.40;;;26.90;98.80;;;;;;5093813;28;20032;-72
2022/09/24 07:04:56;;;;;;;4.93;1.48;;;27.40;98.00;;;;;;5093873;28;20043;-72
2022/09/24 07:07:28;;;;;;;5.55;1.30;;;27.00;98.70;;;;;;5091891;28;20032;-73
2022/09/24 07:09:57;;;;;;;6.32;1.30;;;26.70;98.60;;;;;;5092108;28;20148;-72
2022/09/24 07:12:23;;;;;;;4.20;1.50;;;26.90;98.90;;;;;;5093358;28;20474;-73
2022/09/24 07:14:49;;;;;;;3.85;1.45;;;27.20;98.60;;;;;;5093418;28;20035;-73
2022/09/24 07:17:15;;;;;;;;;;;28.10;97.40;;;;;;5092239;28;20020;-73
2022/09/24 07:19:41;;;;;;;3.20;1.40;;;28.00;97.30;;;;;;5093165;28;20006;-73
2022/09/24 07:22:07;;;;;;;;;;;26.90;97.90;;;;;;5093371;28;20491;-73
2022/09/24 07:24:34;;;;;;;3.15;1.20;;;26.60;98.80;;;;;;5093072;28;19919;-72
2022/09/24 07:27:15;;;;;;;2.72;1.20;;;26.90;98.50;;;;;;5091834;28;20356;-74
2022/09/24 07:29:41;;;;;;;4.03;1.38;;;26.50;98.20;;;;;;5091375;28;20476;-74
2022/09/24 07:32:07;;;;;;;3.08;1.25;;;25.60;99.20;;;;;;5092924;28;20035;-74
2022/09/24 07:34:33;;;;;;;3.83;1.60;;;25.00;99.70;;;;;;5093347;28;20216;-73
2022/09/24 07:36:59;;;;;;;2.40;1.30;;;24.40;99.90;;;;;;5093273;28;20457;-73
2022/09/24 07:39:26;;;;;;;3.03;1.73;;;24.30;99.90;;;;;;5093214;28;20024;-73
2022/09/24 07:41:53;;;;;;;5.95;1.65;;;24.10;99.90;;;;;;5092809;28;20032;-73
2022/09/24 07:44:19;;;;;;;4.80;1.80;;;24.00;99.90;;;;;;5091079;28;20027;-72
2022/09/24 07:46:49;;;;;;;3.95;1.30;;;24.10;99.90;;;;;;5092446;28;20024;-73
2022/09/24 07:49:16;;;;;;;4.40;1.40;;;24.30;99.90;;;;;;5090355;28;20526;-73
2022/09/24 07:51:42;;;;;;;;;;;24.40;99.90;;;;;;5091753;28;20028;-73
2022/09/24 07:54:08;;;;;;;3.88;1.40;;;24.00;99.90;;;;;;5091316;28;20275;-73
2022/09/24 07:56:35;;;;;;;6.50;1.40;;;24.00;99.90;;;;;;5090829;28;20529;-72
2022/09/24 07:59:01;;;;;;;3.00;1.30;;;24.20;99.90;;;;;;5090787;28;20026;-71
2022/09/24 08:01:27;;;;;;;5.95;1.40;;;24.40;99.90;;;;;;5090403;28;20020;-72
2022/09/24 08:03:53;;;;;;;4.88;1.50;;;24.50;99.90;;;;;;5090785;28;20035;-72
2022/09/24 08:06:23;;;;;;;5.30;1.70;;;24.60;99.90;;;;;;5089103;28;20030;-74
2022/09/24 08:08:51;;;;;;;4.13;1.58;;;24.90;99.90;;;;;;5090642;28;20051;-74
2022/09/24 08:11:19;;;;;;;4.60;1.55;;;25.20;99.90;;;;;;5090262;28;20137;-73
2022/09/24 08:13:45;;;;;;;3.72;1.58;;;25.40;99.90;;;;;;5089777;28;20077;-73
2022/09/24 08:16:11;;;;;;;3.90;1.52;;;25.30;99.90;;;;;;5091589;28;20073;-73
2022/09/24 08:19:15;;;;;;;3.88;1.38;;;25.50;99.90;;;;;;5091220;28;20034;-73
2022/09/24 08:21:42;;;;;;;4.97;1.67;;;25.70;99.90;;;;;;5092074;28;20115;-73
2022/09/24 08:24:08;;;;;;;3.25;1.33;;;25.60;99.90;;;;;;5092112;28;20027;-73
2022/09/24 08:26:34;;;;;;;3.72;1.40;;;25.60;99.90;;;;;;5092017;28;20452;-72
2022/09/24 08:29:00;;;;;;;4.13;1.60;;;25.50;99.90;;;;;;5092337;28;20032;-73
2022/09/24 08:31:26;;;;;;;7.20;1.40;;;25.90;99.80;;;;;;5090664;28;20078;-76
2022/09/24 08:33:52;;;;;;;5.85;1.20;;;25.80;99.70;;;;;;5091917;28;20107;-73
2022/09/24 08:36:18;;;;;;;9.07;1.80;;;25.60;99.60;;;;;;5092060;28;20107;-73
2022/09/24 08:38:44;;;;;;;3.20;1.40;;;25.60;99.90;;;;;;5092381;28;20479;-73
2022/09/24 08:41:26;;;;;;;4.30;1.40;;;25.60;99.80;;;;;;5091599;28;20020;-73
2022/09/24 08:44:02;;;;;;;4.53;1.60;;;25.60;99.80;;;;;;5092081;28;20059;-73
2022/09/24 08:49:29;;;;;;;6.45;1.40;;;25.90;99.60;;;;;;5091976;28;20081;-73
2022/09/24 08:52:25;;;;;;;6.93;1.50;;;25.50;99.80;;;;;;5091444;28;20032;-74
2022/09/24 08:54:53;;;;;;;3.30;1.50;;;25.20;99.90;;;;;;5095775;28;20028;-73
2022/09/24 08:57:21;;;;;;;5.68;1.60;;;25.20;99.90;;;;;;5091297;28;20024;-73
2022/09/24 08:59:51;;;;;;;6.72;1.70;;;25.10;99.90;;;;;;5091399;28;20028;-73
2022/09/24 09:03:00;;;;;;;3.08;1.55;;;25.20;99.90;;;;;;5089541;28;20028;-73
2022/09/24 09:05:56;;;;;;;3.70;1.60;;;25.30;99.90;;;;;;5091470;28;20073;-73
2022/09/24 09:08:42;;;;;;;3.90;1.48;;;25.20;99.90;;;;;;5091694;28;20016;-73
2022/09/24 09:11:12;;;;;;;3.88;1.67;;;25.20;99.90;;;;;;5090930;28;20066;-73
2022/09/24 09:13:47;;;;;;;5.47;1.80;;;25.10;99.90;;;;;;5094654;28;20154;-73
2022/09/24 09:16:28;;;;;;;7.00;1.45;;;25.40;99.90;;;;;;5095331;28;20028;-73
2022/09/24 09:19:03;;;;;;;7.18;2.05;;;25.30;99.90;;;;;;5095167;28;20032;-72
2022/09/24 09:21:45;;;;;;;4.63;1.63;;;25.30;99.90;;;;;;5095159;28;20096;-73
2022/09/24 09:24:28;;;;;;;5.10;1.60;;;25.20;99.90;;;;;;5095411;28;20031;-74
2022/09/24 09:26:55;;;;;;;7.07;1.50;;;25.40;99.90;;;;;;5094983;28;20337;-74
2022/09/24 09:29:24;;;;;;;6.22;1.90;;;25.30;99.90;;;;;;5095042;28;20047;-73
2022/09/24 09:32:15;;;;;;;5.93;1.77;;;25.40;99.90;;;;;;5095048;28;20089;-74
2022/09/24 09:35:19;;;;;;;4.43;1.63;;;25.40;99.90;;;;;;5093424;28;20024;-74
2022/09/24 09:38:02;;;;;;;4.88;1.83;;;25.60;99.90;;;;;;5095352;28;20134;-74
2022/09/24 09:40:37;;;;;;;7.57;1.42;;;25.90;99.90;;;;;;5095132;28;20107;-73
2022/09/24 09:43:09;;;;;;;6.63;1.65;;;26.00;99.90;;;;;;5094976;28;20020;-73
2022/09/24 09:45:57;;;;;;;8.70;1.90;;;25.90;99.90;;;;;;5094804;28;20127;-72
2022/09/24 09:48:27;;;;;;;6.38;1.70;;;26.00;99.90;;;;;;5094922;28;20035;-72
2022/09/24 09:51:02;;;;;;;4.68;1.60;;;26.00;99.90;;;;;;5094727;28;20504;-73
2022/09/24 09:53:32;;;;;;;3.92;1.65;;;26.10;99.90;;;;;;5094821;28;20052;-73
2022/09/24 09:56:06;;;;;;;5.72;1.40;;;26.00;99.90;;;;;;5094705;28;20476;-73
2022/09/24 09:58:46;;;;;;;7.07;1.80;;;26.10;99.90;;;;;;5094841;28;20089;-73
2022/09/24 10:01:14;;;;;;;5.68;1.77;;;26.00;99.90;;;;;;5094340;28;20040;-72
2022/09/24 10:03:43;;;;;;;5.95;1.98;;;25.80;99.90;;;;;;5094194;28;20131;-73
2022/09/24 10:06:21;;;;;;;5.97;1.80;;;25.80;99.90;;;;;;5093940;28;20039;-73
2022/09/24 10:08:47;;;;;;;4.55;1.48;;;25.70;99.90;;;;;;5094149;28;20111;-73
2022/09/24 10:11:16;;;;;;;5.93;1.70;;;25.80;99.90;;;;;;5094253;28;20067;-73
2022/09/24 10:13:43;;;;;;;3.80;1.70;;;25.90;99.90;;;;;;5093769;28;20019;-74
2022/09/24 10:16:12;;;;;;;7.43;2.10;;;26.00;99.90;;;;;;5093870;28;20031;-73
2022/09/24 10:18:47;;;;;;;6.65;1.98;;;26.20;99.90;;;;;;5092815;28;20413;-72
2022/09/24 10:21:37;;;;;;;7.55;1.80;;;25.60;99.90;;;;;;5092703;28;20042;-73
2022/09/24 10:24:07;;;;;;;8.02;1.88;;;25.80;99.90;;;;;;5030590;28;20042;-73
2022/09/24 10:26:38;;;;;;;4.93;1.48;;;25.50;99.90;;;;;;5031625;28;20030;-73
2022/09/24 10:31:55;;;;;;;3.70;1.55;;;25.70;99.90;;;;;;5031896;28;20056;-73
2022/09/24 10:34:27;;;;;;;4.60;1.58;;;25.30;99.90;;;;;;5031354;28;20076;-73
2022/09/24 10:37:15;;;;;;;5.88;1.63;;;25.00;99.90;;;;;;5031173;28;20029;-72
2022/09/24 10:39:41;;;;;;;3.67;1.63;;;24.80;99.90;;;;;;5031655;28;20022;-73
2022/09/24 10:42:24;;;;;;;7.07;2.00;;;24.80;99.90;;;;;;5031761;28;20474;-73
2022/09/24 10:44:50;;;;;;;6.35;2.00;;;24.70;99.90;;;;;;5031064;28;20032;-74
2022/09/24 10:47:38;;;;;;;5.93;1.90;;;24.80;99.90;;;;;;5031318;28;20045;-74
2022/09/24 10:50:17;;;;;;;4.00;1.58;;;25.00;99.90;;;;;;5031321;28;20034;-73
2022/09/24 10:52:52;;;;;;;5.40;1.73;;;24.80;99.90;;;;;;5031546;28;20033;-72
2022/09/24 10:56:02;;;;;;;6.45;1.70;;;24.70;99.90;;;;;;5031491;28;20034;-73
2022/09/24 10:58:58;;;;;;;7.07;1.70;;;24.80;99.90;;;;;;5032102;28;20041;-73
2022/09/24 11:01:34;;;;;;;;;;;25.10;99.90;;;;;;5072283;28;20511;-73
2022/09/24 11:04:11;;;;;;;4.25;1.67;;;25.40;99.90;;;;;;5090418;28;20343;-74
2022/09/24 11:07:14;;;;;;;6.78;1.70;;;25.80;99.90;;;;;;5092048;28;20072;-73
2022/09/24 11:09:53;;;;;;;3.35;1.35;;;25.90;99.90;;;;;;5093366;28;20111;-74
2022/09/24 11:12:20;;;;;;;4.60;1.60;;;25.80;99.90;;;;;;5093396;28;20064;-74
2022/09/24 11:15:04;;;;;;;4.38;1.80;;;25.90;99.90;;;;;;5093150;28;20457;-73
2022/09/24 11:17:44;;;;;;;4.82;1.50;;;25.90;99.90;;;;;;5091684;28;20407;-74
2022/09/24 11:20:23;;;;;;;4.10;1.30;;;26.00;99.90;;;;;;5093996;28;20024;-73
2022/09/24 11:23:17;;;;;;;6.10;1.60;;;26.20;99.90;;;;;;5093755;28;20073;-72
2022/09/24 11:26:06;;;;;;;4.82;1.65;;;25.90;99.90;;;;;;5093965;28;20024;-74
2022/09/24 11:28:54;;;;;;;4.70;1.55;;;25.70;99.90;;;;;;5092111;28;20333;-73
2022/09/24 11:31:32;;;;;;;6.32;1.88;;;25.40;99.90;;;;;;5091654;28;20044;-72
2022/09/24 11:34:29;;;;;;;6.05;1.50;;;25.40;99.90;;;;;;5093654;28;20024;-74
2022/09/24 11:37:07;;;;;;;5.68;2.00;;;25.60;99.90;;;;;;5092809;28;20463;-73
2022/09/24 11:40:07;;;;;;;5.78;1.75;;;25.60;99.90;;;;;;5093260;28;20051;-73
2022/09/24 11:42:57;;;;;;;4.20;1.73;;;25.50;99.90;;;;;;5093739;28;20031;-73
2022/09/24 11:46:10;;;;;;;7.13;1.70;;;25.10;99.90;;;;;;5093824;28;20050;-74
2022/09/24 11:48:55;;;;;;;5.55;1.70;;;25.00;99.90;;;;;;5093828;28;20036;-72
2022/09/24 11:51:21;;;;;;;8.38;1.70;;;25.10;99.90;;;;;;5093207;28;20374;-74
2022/09/24 11:53:53;;;;;;;8.55;1.85;;;25.40;99.90;;;;;;5092773;28;20522;-73
2022/09/24 11:56:31;;;;;;;5.18;1.60;;;25.60;99.90;;;;;;5092806;28;20154;-73
2022/09/24 11:59:34;;;;;;;3.92;1.65;;;25.70;99.90;;;;;;5093536;28;20067;-73
2022/09/24 12:02:12;;;;;;;6.40;1.67;;;25.70;99.90;;;;;;5093246;28;20461;-73
2022/09/24 12:04:59;;;;;;;3.53;1.60;;;25.20;99.90;;;;;;5092696;28;20035;-74
2022/09/24 12:07:55;;;;;;;3.55;1.60;;;25.30;99.90;;;;;;5093181;28;20027;-73
2022/09/24 12:10:34;;;;;;;4.65;1.65;;;25.60;99.90;;;;;;5093183;28;20035;-73
2022/09/24 12:13:11;;;;;;;6.28;1.60;;;26.00;99.90;;;;;;5093320;28;20020;-74
2022/09/24 12:15:58;;;;;;;4.30;1.50;;;26.30;99.90;;;;;;5093052;28;20118;-73
2022/09/24 12:18:26;;;;;;;3.65;1.30;;;26.50;99.90;;;;;;5093189;28;20034;-73
2022/09/24 12:21:00;;;;;;;5.25;2.05;;;25.90;99.90;;;;;;5092880;28;20031;-74
2022/09/24 12:23:30;;;;;;;6.07;1.80;;;25.30;99.90;;;;;;5093044;28;20024;-73
2022/09/24 12:25:59;;;;;;;4.25;1.50;;;25.00;99.90;;;;;;5093105;28;20099;-73
2022/09/24 12:34:32;;;;;;;8.98;2.20;;;25.10;99.90;;;;;;5092796;28;20062;-74
2022/09/24 12:37:09;;;;;;;5.43;1.92;;;24.80;99.90;;;;;;5092669;28;20028;-72
2022/09/24 12:39:51;;;;;;;4.80;1.67;;;24.50;99.90;;;;;;5093053;28;20024;-73
2022/09/24 12:42:21;;;;;;;8.38;2.03;;;24.30;99.90;;;;;;5092819;28;20086;-73
2022/09/24 12:44:54;;;;;;;6.22;1.90;;;24.30;99.90;;;;;;5092393;28;20077;-73
2022/09/24 12:47:23;;;;;;;6.07;1.63;;;24.10;99.90;;;;;;5095386;28;20464;-73
2022/09/24 12:50:04;;;;;;;4.55;2.10;;;24.10;99.90;;;;;;5096977;28;20054;-73
2022/09/24 12:52:42;;;;;;;5.20;2.10;;;23.90;99.90;;;;;;5096410;28;20036;-74
2022/09/24 12:55:26;;;;;;;7.07;2.50;;;23.90;99.90;;;;;;5096958;28;20099;-72
2022/09/24 12:58:04;;;;;;;7.28;2.10;;;23.90;99.90;;;;;;5096595;28;20062;-73
2022/09/24 13:00:36;;;;;;;7.03;1.92;;;24.00;99.90;;;;;;5096425;28;20032;-72
2022/09/24 13:03:02;;;;;;;6.28;1.75;;;24.00;99.90;;;;;;5096333;28;20028;-72
2022/09/24 13:05:32;;;;;;;;;;;24.00;99.90;;;;;;5096747;28;20109;-73
2022/09/24 13:08:15;;;;;;;5.45;1.90;;;24.20;99.90;;;;;;5096226;28;19908;-73
2022/09/24 13:10:54;;;;;;;6.15;1.70;;;24.20;99.90;;;;;;5096652;28;20032;-72
2022/09/24 13:13:32;;;;;;;3.70;1.65;;;24.00;99.90;;;;;;5096358;28;20487;-73
2022/09/24 13:16:02;;;;;;;6.15;1.70;;;24.00;99.90;;;;;;5096534;28;20126;-72
2022/09/24 13:18:31;;;;;;;7.57;1.80;;;24.10;99.90;;;;;;5096521;28;20479;-72
2022/09/24 13:21:09;;;;;;;8.77;2.13;;;24.00;99.90;;;;;;5096402;28;20383;-72
2022/09/24 13:23:34;;;;;;;6.53;1.83;;;24.10;99.90;;;;;;5096336;28;20025;-72
2022/09/24 13:26:12;;;;;;;3.08;1.42;;;24.40;99.90;;;;;;5094583;28;20090;-73
2022/09/24 13:28:46;;;;;;;5.85;2.00;;;24.80;99.90;;;;;;5094690;28;20028;-73
2022/09/24 13:31:21;;;;;;;9.60;2.08;;;25.10;99.90;;;;;;5094134;28;20044;-74